• Join FlightAware (Why Join?)
  • Login
  • US Flag 
09:04PM EST


 

Airport Tracker/Info


-or-


 

Live Flight TrackerFlight Track Log ✈ FSR411 ✈ 14-Aug-2013 ✈ KIND - KBMI

Flight Track Log - Related Links

Times and Time Zones

All times are in EDT time to prevent confusion due to time zone crossing. See the FSR411 flight status page for this flight to view local times or setup timezone preferences in your user account.

Time Position Orientation Groundspeed Altitude Reporting Facility
EDT Latitude Longitude Course Direction KTS MPH feet Rate Location/Type
10:57AM 39.7500 -86.3000 314° West 166 191 1,700  Level Indianapolis TRACON
10:58AM 39.8000 -86.3667 314° West 265 305 3,100 1,200 Climbing Indianapolis TRACON
10:59AM 39.8667 -86.4000 339° North 260 299 4,400 2,280 Climbing Indianapolis TRACON
11:00AM 39.9167 -86.4167 346° North 255 293 7,500 3,300 Climbing Indianapolis TRACON
11:01AM 39.9611 -86.4375 340° North 256 295 9,300 2,760 Climbing Indianapolis Center
11:02AM 40.0408 -86.4700 343° North 288 331 12,000 2,160 Climbing Indianapolis Center
11:03AM 40.1369 -86.5100 342° North 350 403 13,800 1,680 Climbing Indianapolis Center
11:04AM 40.1944 -86.6136 306° West 369 425 15,400 1,140 Climbing Chicago Center
11:05AM 40.2119 -86.7464 280° West 374 430 16,100 300 Climbing Chicago Center
11:06AM 40.2264 -86.8792 278° West 374 430 16,100  Level Chicago Center
11:07AM 40.2450 -87.0125 280° West 375 432 16,100  Level Chicago Center
11:08AM 40.2617 -87.1475 279° West 377 434 16,100  Level Chicago Center
11:09AM 40.2831 -87.3100 280° West 379 436 16,100  Level Chicago Center
11:10AM 40.2997 -87.4450 279° West 379 436 16,100  Level Chicago Center
11:11AM 40.3183 -87.5928 279° West 382 440 16,100 -60 Level Chicago Center
11:12AM 40.3353 -87.7272 279° West 378 435 16,000 -120 Descending Chicago Center
11:13AM 40.3528 -87.8617 280° West 376 433 15,900 -720 Descending Chicago Center
11:14AM 40.3683 -87.9892 279° West 358 412 14,600 -1,620 Descending Chicago Center
11:15AM 40.3739 -88.1128 273° West 344 396 12,700 -1,920 Descending Chicago Center
11:16AM 40.3417 -88.2228 249° West 325 374 10,700 -2,220 Descending Chicago Center
11:17AM 40.3483 -88.3467 274° West 284 327 8,200 -2,040 Descending Chicago Center
11:18AM 40.3728 -88.4433 288° West 279 321 6,600 -1,080 Descending Chicago Center
11:19AM 40.3936 -88.5347 287° West 259 298 6,000 -1,260 Descending Chicago Center
11:20AM 40.4117 -88.6192 286° West 245 282 4,100 -1,500 Descending Chicago Center
11:21AM 40.4314 -88.7044 287° West 245 282 3,000 -540 Descending Chicago Center
11:22AM 40.4453 -88.7753 284° West 208 239 3,000 -480 Level Chicago Center
11:23AM 40.4589 -88.8369 286° West 188 216 2,100 -720 Descending Chicago Center
11:24AM 40.4747 -88.8900 291° West 170 196 1,600 -540 Descending Chicago Center
11:26AM 40.4667 -88.9000 270° West  Level FlightAware Approximate
11:33AM 40.4771 -88.9159 270° West  Level Estimated
11:34AM 40.4771 -88.9159 270° West  Level Estimated
11:35AM 40.4771 -88.9159 270° West  Level Estimated